createdAt,value
2018-11-02T00:02:07.389Z,10.50
2018-11-02T00:04:36.534Z,9.85
2018-11-02T00:07:05.673Z,18.57
2018-11-02T00:09:34.865Z,18.97
2018-11-02T00:12:03.999Z,8.20
2018-11-02T00:14:33.159Z,9.13
2018-11-02T00:17:02.294Z,11.20
2018-11-02T00:19:33.328Z,23.70
2018-11-02T00:22:04.073Z,15.10
2018-11-02T00:24:33.282Z,16.43
2018-11-02T00:27:02.682Z,17.57
2018-11-02T00:29:32.919Z,14.47
2018-11-02T00:32:02.205Z,13.27
2018-11-02T00:34:31.245Z,16.43
2018-11-02T00:37:00.401Z,13.30
2018-11-02T00:39:29.508Z,11.70
2018-11-02T00:41:58.658Z,11.23
2018-11-02T00:44:27.823Z,28.43
2018-11-02T00:46:56.958Z,13.30
2018-11-02T00:49:26.099Z,21.45
2018-11-02T00:51:55.609Z,14.90
2018-11-02T00:54:24.779Z,11.97
2018-11-02T00:56:53.906Z,15.53
2018-11-02T00:59:23.087Z,18.50
2018-11-02T01:01:52.218Z,18.87
2018-11-02T01:04:21.413Z,19.67
2018-11-02T01:06:50.588Z,11.20
2018-11-02T01:09:19.742Z,21.10
2018-11-02T01:11:48.968Z,21.10
2018-11-02T01:14:18.101Z,16.00
2018-11-02T01:16:47.312Z,14.10
2018-11-02T01:19:16.406Z,13.47
2018-11-02T01:21:45.547Z,13.85
2018-11-02T01:24:14.870Z,11.93
2018-11-02T01:26:44.022Z,9.00
2018-11-02T01:29:13.189Z,16.93
2018-11-02T01:31:42.369Z,11.73
2018-11-02T01:34:11.490Z,11.23
2018-11-02T01:36:40.612Z,16.27
2018-11-02T01:39:10.097Z,19.50
2018-11-02T01:41:39.261Z,17.83
2018-11-02T01:44:08.449Z,13.23
2018-11-02T01:46:37.620Z,10.08
2018-11-02T01:49:07.075Z,12.33
2018-11-02T01:51:36.241Z,18.73
2018-11-02T01:54:05.476Z,7.43
2018-11-02T01:56:34.640Z,19.00
2018-11-02T01:59:03.818Z,12.73
2018-11-02T02:01:32.968Z,10.67
2018-11-02T02:04:02.222Z,20.50
2018-11-02T02:06:31.381Z,8.83
2018-11-02T02:09:00.543Z,12.07
2018-11-02T02:11:29.662Z,14.17
2018-11-02T02:13:58.835Z,15.20
2018-11-02T02:16:27.983Z,11.03
2018-11-02T02:18:57.132Z,12.30
2018-11-02T02:21:26.403Z,8.63
2018-11-02T02:23:55.558Z,12.40
2018-11-02T02:26:24.675Z,21.00
2018-11-02T02:28:53.845Z,9.48
2018-11-02T02:31:23.019Z,10.60
2018-11-02T02:33:52.137Z,13.47
2018-11-02T02:36:21.278Z,11.70
2018-11-02T02:38:50.413Z,12.20
2018-11-02T02:41:19.532Z,11.90
2018-11-02T02:43:48.679Z,11.40
2018-11-02T02:46:17.937Z,14.50
2018-11-02T02:48:47.134Z,12.87
2018-11-02T02:51:16.276Z,13.93
2018-11-02T02:53:45.426Z,19.57
2018-11-02T02:56:14.558Z,14.13
2018-11-02T02:58:43.705Z,15.43
2018-11-02T03:01:12.856Z,12.13
2018-11-02T03:03:42.077Z,15.17
2018-11-02T03:06:11.289Z,12.90
2018-11-02T03:08:40.447Z,15.60
2018-11-02T03:11:10.037Z,10.60
2018-11-02T03:13:38.938Z,11.37
2018-11-02T03:16:08.091Z,20.53
2018-11-02T03:18:37.305Z,12.23
2018-11-02T03:21:06.590Z,19.17
2018-11-02T03:23:35.726Z,31.00
2018-11-02T03:26:05.080Z,26.97
2018-11-02T03:28:34.225Z,19.10
2018-11-02T03:31:03.372Z,11.20
2018-11-02T03:33:32.588Z,12.47
2018-11-02T03:36:01.739Z,22.30
2018-11-02T03:38:30.873Z,13.87
2018-11-02T03:41:00.020Z,31.30
2018-11-02T03:43:29.176Z,14.17
2018-11-02T03:45:58.426Z,12.07
2018-11-02T03:48:27.620Z,11.33
2018-11-02T03:50:57.280Z,11.63
2018-11-02T03:53:26.432Z,16.20
2018-11-02T03:55:55.561Z,12.63
2018-11-02T03:58:24.709Z,13.20
2018-11-02T04:00:55.020Z,12.50
2018-11-02T04:03:24.129Z,14.70
2018-11-02T04:05:53.260Z,14.78
2018-11-02T04:08:22.393Z,15.90
2018-11-02T04:10:51.546Z,13.85
2018-11-02T04:13:20.798Z,14.10
2018-11-02T04:15:49.929Z,12.80
2018-11-02T04:18:19.076Z,16.93
2018-11-02T04:20:48.764Z,25.70
2018-11-02T04:23:17.903Z,13.10
2018-11-02T04:25:47.000Z,15.67
2018-11-02T04:28:16.174Z,16.90
2018-11-02T04:30:45.292Z,19.57
2018-11-02T04:33:14.400Z,18.20
2018-11-02T04:35:43.558Z,16.17
2018-11-02T04:38:12.727Z,17.10
2018-11-02T04:40:41.886Z,16.52
2018-11-02T04:43:11.717Z,17.85
2018-11-02T04:45:41.522Z,26.83
2018-11-02T04:48:11.978Z,13.10
2018-11-02T04:50:41.755Z,17.10
2018-11-02T04:53:11.042Z,13.23
2018-11-02T04:55:40.173Z,16.07
2018-11-02T04:58:09.349Z,11.63
2018-11-02T05:00:38.503Z,11.73
2018-11-02T05:03:07.858Z,13.60
2018-11-02T05:05:36.977Z,37.13
2018-11-02T05:08:06.145Z,11.83
2018-11-02T05:10:35.818Z,11.50
2018-11-02T05:13:05.009Z,15.60
2018-11-02T05:15:34.130Z,13.00
2018-11-02T05:18:03.273Z,18.00
2018-11-02T05:20:32.415Z,18.03
2018-11-02T05:23:01.625Z,19.97
2018-11-02T05:25:30.752Z,13.03
2018-11-02T05:27:59.870Z,16.35
2018-11-02T05:30:28.994Z,17.13
2018-11-02T05:32:58.162Z,13.67
2018-11-02T05:35:27.328Z,16.73
2018-11-02T05:37:56.486Z,17.70
2018-11-02T05:40:25.628Z,16.37
2018-11-02T05:42:54.779Z,13.53
2018-11-02T05:45:23.905Z,21.27
2018-11-02T05:47:53.056Z,13.50
2018-11-02T05:50:22.356Z,26.20
2018-11-02T05:52:51.481Z,13.03
2018-11-02T05:55:20.610Z,22.77
2018-11-02T05:57:49.735Z,16.87
2018-11-02T06:00:19.033Z,18.17
2018-11-02T06:02:48.206Z,21.30
2018-11-02T06:05:17.370Z,17.60
2018-11-02T06:07:46.601Z,18.17
2018-11-02T06:10:15.735Z,15.47
2018-11-02T06:12:44.869Z,22.80
2018-11-02T06:15:14.233Z,15.63
2018-11-02T06:17:43.390Z,20.13
2018-11-02T06:20:12.604Z,24.83
2018-11-02T06:22:42.194Z,15.77
2018-11-02T06:25:11.773Z,22.20
2018-11-02T06:27:40.901Z,33.73
2018-11-02T06:30:10.589Z,13.13
2018-11-02T06:32:39.824Z,16.50
2018-11-02T06:35:09.499Z,15.43
2018-11-02T06:37:38.598Z,19.10
2018-11-02T06:40:08.014Z,15.80
2018-11-02T06:42:37.315Z,14.80
2018-11-02T06:45:08.309Z,23.73
2018-11-02T06:47:37.277Z,16.40
2018-11-02T06:50:06.589Z,17.27
2018-11-02T06:52:35.920Z,18.40
2018-11-02T06:55:05.721Z,21.70
2018-11-02T06:57:34.894Z,16.83
2018-11-02T07:00:05.073Z,17.43
2018-11-02T07:02:33.981Z,19.70
2018-11-02T07:05:03.111Z,22.33
2018-11-02T07:07:32.398Z,21.30
2018-11-02T07:10:01.498Z,13.62
2018-11-02T07:12:30.656Z,17.67
2018-11-02T07:14:59.783Z,15.13
2018-11-02T07:17:28.936Z,14.73
2018-11-02T07:19:58.185Z,14.60
2018-11-02T07:22:27.505Z,22.62
2018-11-02T07:24:56.760Z,17.35
2018-11-02T07:27:26.219Z,23.60
2018-11-02T07:29:56.199Z,27.40
2018-11-02T07:32:25.403Z,29.23
2018-11-02T07:34:54.549Z,37.43
2018-11-02T07:37:23.673Z,16.30
2018-11-02T07:39:52.841Z,16.27
2018-11-02T07:42:22.117Z,14.87
2018-11-02T07:44:51.270Z,16.10
2018-11-02T07:47:20.429Z,17.87
2018-11-02T07:49:49.577Z,23.50
2018-11-02T07:52:18.693Z,14.40
2018-11-02T07:54:47.903Z,14.10
2018-11-02T07:57:17.142Z,20.70
2018-11-02T07:59:46.428Z,15.87
2018-11-02T08:02:15.664Z,16.43
2018-11-02T08:04:44.805Z,17.60
2018-11-02T08:07:14.000Z,22.23
2018-11-02T08:09:43.870Z,20.33
2018-11-02T08:12:13.037Z,16.10
2018-11-02T08:14:42.353Z,22.93
2018-11-02T08:17:11.549Z,18.20
2018-11-02T08:19:40.705Z,17.60
2018-11-02T08:22:09.884Z,15.70
2018-11-02T08:24:39.173Z,24.00
2018-11-02T08:27:08.468Z,14.07
2018-11-02T08:29:37.717Z,17.27
2018-11-02T08:32:07.006Z,17.85
2018-11-02T08:34:36.184Z,18.63
2018-11-02T08:37:05.540Z,14.53
2018-11-02T08:39:34.684Z,16.50
2018-11-02T08:42:04.027Z,20.13
2018-11-02T08:44:33.247Z,17.33
2018-11-02T08:47:02.470Z,18.03
2018-11-02T08:49:31.783Z,21.23
2018-11-02T08:52:01.142Z,21.53
2018-11-02T08:54:30.365Z,17.97
2018-11-02T08:56:59.628Z,15.07
2018-11-02T08:59:29.025Z,17.73
2018-11-02T09:01:58.166Z,26.07
2018-11-02T09:04:27.480Z,19.40
2018-11-02T09:06:56.618Z,17.63
2018-11-02T09:09:26.024Z,14.63
2018-11-02T09:11:55.236Z,14.53
2018-11-02T09:14:24.331Z,13.43
2018-11-02T09:16:53.564Z,14.67
2018-11-02T09:19:22.757Z,14.35
2018-11-02T09:21:52.187Z,15.27
2018-11-02T09:24:21.341Z,16.10
2018-11-02T09:26:50.666Z,13.60
2018-11-02T09:29:19.953Z,16.47
2018-11-02T09:31:49.232Z,23.10
2018-11-02T09:34:18.530Z,33.73
2018-11-02T09:36:47.758Z,19.53
2018-11-02T09:39:16.951Z,14.47
2018-11-02T09:41:46.102Z,19.80
2018-11-02T09:44:15.243Z,18.15
2018-11-02T09:46:44.509Z,20.47
2018-11-02T09:49:13.714Z,17.97
2018-11-02T09:51:43.039Z,23.10
2018-11-02T09:54:12.149Z,17.73
2018-11-02T09:56:41.311Z,19.60
2018-11-02T09:59:10.478Z,24.10
2018-11-02T10:01:39.682Z,18.03
2018-11-02T10:04:08.840Z,24.63
2018-11-02T10:06:38.029Z,18.00
2018-11-02T10:09:10.180Z,20.87
2018-11-02T10:11:39.418Z,23.33
2018-11-02T10:14:09.420Z,19.53
2018-11-02T10:16:38.626Z,26.70
2018-11-02T10:19:08.333Z,19.63
2018-11-02T10:21:37.505Z,20.17
2018-11-02T10:24:07.233Z,17.33
2018-11-02T10:26:36.562Z,18.70
2018-11-02T10:29:06.311Z,16.20
2018-11-02T10:31:35.618Z,16.27
2018-11-02T10:34:04.890Z,15.10
2018-11-02T10:36:35.010Z,20.67
2018-11-02T10:39:05.517Z,21.68
2018-11-02T10:41:37.781Z,19.40
2018-11-02T10:44:07.084Z,17.33
2018-11-02T10:46:36.418Z,17.53
2018-11-02T10:49:05.921Z,19.43
2018-11-02T10:51:35.160Z,17.73
2018-11-02T10:54:04.455Z,21.53
2018-11-02T10:56:33.590Z,24.17
2018-11-02T10:59:02.770Z,18.90
2018-11-02T11:01:37.162Z,17.47
2018-11-02T11:04:07.299Z,16.67
2018-11-02T11:06:36.792Z,17.20
2018-11-02T11:09:09.449Z,18.30
2018-11-02T11:11:38.821Z,27.13
2018-11-02T11:14:08.142Z,24.80
2018-11-02T11:16:37.362Z,20.60
2018-11-02T11:19:07.819Z,19.17
2018-11-02T11:21:37.560Z,16.03
2018-11-02T11:24:06.939Z,16.03
2018-11-02T11:26:36.526Z,14.70
2018-11-02T11:29:06.059Z,13.70
2018-11-02T11:31:35.539Z,17.60
2018-11-02T11:34:05.544Z,15.40
2018-11-02T11:36:34.695Z,15.57
2018-11-02T11:39:05.200Z,16.17
2018-11-02T11:41:35.180Z,13.40
2018-11-02T11:44:04.365Z,22.07
2018-11-02T11:46:33.549Z,19.13
2018-11-02T11:49:02.867Z,17.97
2018-11-02T11:51:31.950Z,14.17
2018-11-02T11:54:01.200Z,22.30
2018-11-02T11:56:30.361Z,21.73
2018-11-02T11:58:59.629Z,14.73
2018-11-02T12:01:28.816Z,22.77
2018-11-02T12:03:58.105Z,20.73
2018-11-02T12:06:27.295Z,19.15
2018-11-02T12:08:56.512Z,18.40
2018-11-02T12:11:25.698Z,27.02
2018-11-02T12:13:55.082Z,22.37
2018-11-02T12:16:24.322Z,14.23
2018-11-02T12:18:53.579Z,14.83
2018-11-02T12:21:22.813Z,16.60
2018-11-02T12:23:52.053Z,12.50
2018-11-02T12:26:21.360Z,16.50
2018-11-02T12:28:50.643Z,26.93
2018-11-02T12:31:19.721Z,13.85
2018-11-02T12:33:48.916Z,18.27
2018-11-02T12:36:18.081Z,16.90
2018-11-02T12:38:47.206Z,13.20
2018-11-02T12:41:16.388Z,24.50
2018-11-02T12:43:45.619Z,19.00
2018-11-02T12:46:14.803Z,17.03
2018-11-02T12:48:44.150Z,22.43
2018-11-02T12:51:13.197Z,13.93
2018-11-02T12:53:42.402Z,26.40
2018-11-02T12:56:11.603Z,22.70
2018-11-02T12:58:40.737Z,32.80
2018-11-02T13:01:09.949Z,20.07
2018-11-02T13:03:39.155Z,18.60
2018-11-02T13:06:08.380Z,15.47
2018-11-02T13:08:37.584Z,13.80
2018-11-02T13:11:06.833Z,20.97
2018-11-02T13:13:35.954Z,17.70
2018-11-02T13:16:05.324Z,19.63
2018-11-02T13:18:34.420Z,19.92
2018-11-02T13:21:03.564Z,17.93
2018-11-02T13:23:32.695Z,20.80
2018-11-02T13:26:01.991Z,19.53
2018-11-02T13:28:31.004Z,17.35
2018-11-02T13:31:01.174Z,16.33
2018-11-02T13:33:30.225Z,24.83
2018-11-02T13:35:59.389Z,17.77
2018-11-02T13:38:28.552Z,21.17
2018-11-02T13:40:58.288Z,19.63
2018-11-02T13:43:27.581Z,21.33
2018-11-02T13:45:56.686Z,22.13
2018-11-02T13:48:25.818Z,23.90
2018-11-02T13:50:54.981Z,20.70
2018-11-02T13:53:24.209Z,25.12
2018-11-02T13:55:53.362Z,20.50
2018-11-02T13:58:22.498Z,18.17
2018-11-02T14:00:51.804Z,17.97
2018-11-02T14:03:20.930Z,24.10
2018-11-02T14:05:50.209Z,18.33
2018-11-02T14:08:19.367Z,21.43
2018-11-02T14:10:48.534Z,20.97
2018-11-02T14:13:17.696Z,17.05
2018-11-02T14:15:46.887Z,17.97
2018-11-02T14:18:16.104Z,22.97
2018-11-02T14:20:45.282Z,16.73
2018-11-02T14:23:14.446Z,17.53
2018-11-02T14:25:43.568Z,19.93
2018-11-02T14:28:12.719Z,22.30
2018-11-02T14:30:41.851Z,15.73
2018-11-02T14:33:11.668Z,17.80
2018-11-02T14:35:40.810Z,23.32
2018-11-02T14:38:09.958Z,21.63
2018-11-02T14:40:39.270Z,24.47
2018-11-02T14:43:08.713Z,18.27
2018-11-02T14:45:37.948Z,30.50
2018-11-02T14:48:07.174Z,24.87
2018-11-02T14:50:36.314Z,21.80
2018-11-02T14:53:05.974Z,24.53
2018-11-02T14:55:35.181Z,19.77
2018-11-02T14:58:04.710Z,17.53
2018-11-02T15:00:33.934Z,23.90
2018-11-02T15:03:03.103Z,26.47
2018-11-02T15:05:32.270Z,19.03
2018-11-02T15:08:01.446Z,16.07
2018-11-02T15:10:30.632Z,26.23
2018-11-02T15:12:59.874Z,20.50
2018-11-02T15:15:29.092Z,21.20
2018-11-02T15:17:58.311Z,24.27
2018-11-02T15:20:27.509Z,21.00
2018-11-02T15:22:56.670Z,14.23
2018-11-02T15:25:25.836Z,20.25
2018-11-02T15:27:55.137Z,17.80
2018-11-02T15:30:24.306Z,26.80
2018-11-02T15:32:53.469Z,14.93
2018-11-02T15:35:22.611Z,22.20
2018-11-02T15:37:51.843Z,26.20
2018-11-02T15:40:21.012Z,29.63
2018-11-02T15:42:50.200Z,28.70
2018-11-02T15:45:19.385Z,25.68
2018-11-02T15:47:48.558Z,31.60
2018-11-02T15:50:17.893Z,21.40
2018-11-02T15:52:47.109Z,24.03
2018-11-02T15:55:16.547Z,22.10
2018-11-02T15:57:45.730Z,29.00
2018-11-02T16:00:17.441Z,27.90
2018-11-02T16:02:47.908Z,17.10
2018-11-02T16:05:17.148Z,21.57
2018-11-02T16:07:46.352Z,22.43
2018-11-02T16:10:15.558Z,33.77
2018-11-02T16:12:45.078Z,22.83
2018-11-02T16:15:14.350Z,20.97
2018-11-02T16:17:43.505Z,25.17
2018-11-02T16:20:14.221Z,31.57
2018-11-02T16:22:43.910Z,18.43
2018-11-02T16:25:13.517Z,21.97
2018-11-02T16:27:42.772Z,16.63
2018-11-02T16:30:12.459Z,27.03
2018-11-02T16:32:41.581Z,25.07
2018-11-02T16:35:11.607Z,27.70
2018-11-02T16:37:40.800Z,20.87
2018-11-02T16:40:14.107Z,22.33
2018-11-02T16:42:43.968Z,33.03
2018-11-02T16:45:14.226Z,39.38
2018-11-02T16:47:44.227Z,34.17
2018-11-02T16:50:14.648Z,27.83
2018-11-02T16:52:44.216Z,24.00
2018-11-02T16:55:13.573Z,25.15
2018-11-02T16:57:42.861Z,21.87
2018-11-02T17:00:14.676Z,25.90
2018-11-02T17:02:44.817Z,35.63
2018-11-02T17:05:14.009Z,39.13
2018-11-02T17:07:43.824Z,30.72
2018-11-02T17:10:14.158Z,23.20
2018-11-02T17:12:43.840Z,29.67
2018-11-02T17:15:13.669Z,39.23
2018-11-02T17:17:42.913Z,29.40
2018-11-02T17:20:14.634Z,29.50
2018-11-02T17:22:43.858Z,36.50
2018-11-02T17:25:13.392Z,34.53
2018-11-02T17:27:42.590Z,26.43
2018-11-02T17:30:14.705Z,31.73
2018-11-02T17:32:43.953Z,34.83
2018-11-02T17:35:13.189Z,38.30
2018-11-02T17:37:42.453Z,37.97
2018-11-02T17:40:12.844Z,41.87
2018-11-02T17:42:42.493Z,36.93
2018-11-02T17:45:11.861Z,38.00
2018-11-02T17:47:41.961Z,33.90
2018-11-02T17:50:12.499Z,148.17
2018-11-02T17:52:41.748Z,56.30
2018-11-02T17:55:10.881Z,43.87
2018-11-02T17:57:40.283Z,36.27
2018-11-02T18:00:11.352Z,49.07
2018-11-02T18:02:40.588Z,43.53
2018-11-02T18:05:10.621Z,38.77
2018-11-02T18:07:39.809Z,41.70
2018-11-02T18:10:11.133Z,38.10
2018-11-02T18:12:40.665Z,35.63
2018-11-02T18:15:10.792Z,39.10
2018-11-02T18:17:39.962Z,38.03
2018-11-02T18:20:11.345Z,43.87
2018-11-02T18:22:40.514Z,33.40
2018-11-02T18:25:10.214Z,37.77
2018-11-02T18:27:39.565Z,44.75
2018-11-02T18:30:09.978Z,41.30
2018-11-02T18:32:39.169Z,45.17
2018-11-02T18:35:09.125Z,31.47
2018-11-02T18:37:38.197Z,29.30
2018-11-02T18:40:10.168Z,46.50
2018-11-02T18:42:39.345Z,39.00
2018-11-02T18:45:11.009Z,30.10
2018-11-02T18:47:45.240Z,42.33
2018-11-02T18:50:16.188Z,32.90
2018-11-02T18:52:45.947Z,41.97
2018-11-02T18:55:15.323Z,46.80
2018-11-02T18:57:44.560Z,34.53
2018-11-02T19:00:13.975Z,34.73
2018-11-02T19:02:43.236Z,36.10
2018-11-02T19:05:18.208Z,43.50
2018-11-02T19:07:47.356Z,36.80
2018-11-02T19:10:16.552Z,81.70
2018-11-02T19:12:45.758Z,57.10
2018-11-02T19:15:16.237Z,41.60
2018-11-02T19:17:45.462Z,33.03
2018-11-02T19:20:15.161Z,34.30
2018-11-02T19:22:44.448Z,41.67
2018-11-02T19:25:14.745Z,47.17
2018-11-02T19:27:44.775Z,39.90
2018-11-02T19:30:14.682Z,51.47
2018-11-02T19:32:44.133Z,39.77
2018-11-02T19:35:14.252Z,39.00
2018-11-02T19:37:43.765Z,49.10
2018-11-02T19:40:14.162Z,40.27
2018-11-02T19:42:43.545Z,35.67
2018-11-02T19:45:13.167Z,42.97
2018-11-02T19:47:47.589Z,43.40
2018-11-02T19:50:17.784Z,42.20
2018-11-02T19:52:46.983Z,44.50
2018-11-02T19:55:16.301Z,60.93
2018-11-02T19:57:45.621Z,50.10
2018-11-02T20:00:16.026Z,42.47
2018-11-02T20:02:45.208Z,50.60
2018-11-02T20:05:16.296Z,47.23
2018-11-02T20:07:45.595Z,40.43
2018-11-02T20:10:15.689Z,44.43
2018-11-02T20:12:45.537Z,44.87
2018-11-02T20:15:15.410Z,43.30
2018-11-02T20:17:44.660Z,40.47
2018-11-02T20:20:14.932Z,40.60
2018-11-02T20:22:44.109Z,37.40
2018-11-02T20:25:16.557Z,43.33
2018-11-02T20:27:45.782Z,37.63
2018-11-02T20:30:16.655Z,39.60
2018-11-02T20:32:45.949Z,40.90
2018-11-02T20:35:15.703Z,47.43
2018-11-02T20:37:45.000Z,44.85
2018-11-02T20:40:16.609Z,60.93
2018-11-02T20:42:46.079Z,37.47
2018-11-02T20:45:15.857Z,40.10
2018-11-02T20:47:47.158Z,43.40
2018-11-02T20:50:16.668Z,36.90
2018-11-02T20:52:46.169Z,38.53
2018-11-02T20:55:15.777Z,39.50
2018-11-02T20:57:44.947Z,46.27
2018-11-02T21:00:15.516Z,43.00
2018-11-02T21:02:45.171Z,45.70
2018-11-02T21:05:16.614Z,38.47
2018-11-02T21:07:46.446Z,41.13
2018-11-02T21:10:16.710Z,43.70
2018-11-02T21:12:45.933Z,38.63
2018-11-02T21:15:17.369Z,40.50
2018-11-02T21:17:46.507Z,41.00
2018-11-02T21:20:17.121Z,42.57
2018-11-02T21:22:46.293Z,44.05
2018-11-02T21:25:15.802Z,41.90
2018-11-02T21:27:45.833Z,40.90
2018-11-02T21:30:18.983Z,40.43
2018-11-02T21:32:48.711Z,49.13
2018-11-02T21:35:18.464Z,48.03
2018-11-02T21:37:48.362Z,38.77
2018-11-02T21:40:19.006Z,41.17
2018-11-02T21:42:48.249Z,51.47
2018-11-02T21:45:18.908Z,40.50
2018-11-02T21:47:48.146Z,53.33
2018-11-02T21:50:17.746Z,40.63
2018-11-02T21:52:46.945Z,40.67
2018-11-02T21:55:16.129Z,42.23
2018-11-02T21:57:45.313Z,41.40
2018-11-02T22:00:17.893Z,50.27
2018-11-02T22:02:47.478Z,37.83
2018-11-02T22:05:16.685Z,40.35
2018-11-02T22:07:47.329Z,38.30
2018-11-02T22:10:16.928Z,43.83
2018-11-02T22:12:46.148Z,34.90
2018-11-02T22:15:15.313Z,44.27
2018-11-02T22:17:44.538Z,41.23
2018-11-02T22:20:14.938Z,36.93
2018-11-02T22:22:44.225Z,36.97
2018-11-02T22:25:14.264Z,45.07
2018-11-02T22:27:43.409Z,44.40
2018-11-02T22:30:15.013Z,47.90
2018-11-02T22:32:44.221Z,37.50
2018-11-02T22:35:14.027Z,44.03
2018-11-02T22:37:43.517Z,46.03
2018-11-02T22:40:13.316Z,46.57
2018-11-02T22:42:43.060Z,43.60
2018-11-02T22:45:13.511Z,43.60
2018-11-02T22:47:46.884Z,38.87
2018-11-02T22:50:16.078Z,44.63
2018-11-02T22:52:45.240Z,42.97
2018-11-02T22:55:14.474Z,41.53
2018-11-02T22:57:43.657Z,46.63
2018-11-02T23:00:16.357Z,42.50
2018-11-02T23:02:46.589Z,42.10
2018-11-02T23:05:15.782Z,45.40
2018-11-02T23:07:45.257Z,46.87
2018-11-02T23:10:14.546Z,33.73
2018-11-02T23:12:43.734Z,41.03
2018-11-02T23:15:13.269Z,46.37
2018-11-02T23:17:42.440Z,40.03
2018-11-02T23:20:13.534Z,39.57
2018-11-02T23:22:42.814Z,50.00
2018-11-02T23:25:12.531Z,51.00
2018-11-02T23:27:43.159Z,52.80
2018-11-02T23:30:12.481Z,44.50
2018-11-02T23:32:41.741Z,45.10
2018-11-02T23:35:10.990Z,48.05
2018-11-02T23:37:40.147Z,48.30
2018-11-02T23:40:10.384Z,50.07
2018-11-02T23:42:39.614Z,45.60
2018-11-02T23:45:10.078Z,45.63
2018-11-02T23:47:39.421Z,45.50
2018-11-02T23:50:09.732Z,53.73
2018-11-02T23:52:39.754Z,51.30
2018-11-02T23:55:09.256Z,51.80
2018-11-02T23:57:38.755Z,52.50
